Pagrindinis puslapis
METAR-TAF:

METAR-TAF

Oro uostai :

Karalienės Alijos tarptautinis oro uostas

Amanas-Queen Alia, Jordanija

platuma: 31-40N, ilguma: 035-58E, Aukštis: 721 m

Dabartinis oras

Ataskaita buvo paskelbta 33 minutes, ne 04:00 UTC
Vėjas 13 kt iš Rytų/Šiaurės Rytų
Temperatūra 13°C
Drėgmė 82%
Slėgis 1017 hPa
Matomumas: 4000 m
migla

METAR: OJAI 130400Z 07013KT 4000 HZ NSC 13/10 Q1017 NOSIG

Laikas: 06:33 (04:33 UTC)

Prognozė

Ataskaita buvo paskelbta 5 valandos ir 43 minutes, ne 22:50 UTC
Prognozė galioja nuo 13 metu 00 UTC su 14 metu 06 UTC
Vėjas 12 kt iš Pietryčių
Matomumas: 5000 m
migla
Tikimybė 40% :
Laikinai
nuo 13 metu 07 UTC su 13 metu 18 UTC
Vėjas 20 kt iš Rytų/Pietryčių
Matomumas: 3000 m
Dulkes pustymas
Tikimybė 30% :
Laikinai
nuo 14 metu 02 UTC su 14 metu 06 UTC
Matomumas: 4000 m
Mažai debesys ne aukštis 4500 ft
Išsisklaidę debesys ne aukštis 7000 ft
lietus

TAF: OJAI 122250Z 1300/1406 13012KT 5000 HZ NSC PROB40 TEMPO 1307/1318 12020KT 3000 BLDU PROB30 TEMPO 1402/1406 4000 -RA FEW045 SCT070

Orai ataskaitas ir orų prognozės (METAR, TAF).

turimą stotys yra geltonos ir raudonos taškus žemėlapyje.

Perkelti pele per norėdami pamatyti stoties vardą.

Tada spustelėkite, norėdami matyti oro stebėjimo ir prognozės.

Norėdami pakeisti žemėlapį: spustelėkite ant žalios mygtukų su juodo kryžiaus žemyn,; žalią mygtuką su brūkšneliu, jei norite nutolinti; arba žalių rodyklių gretimoms žemėlapius.


METAR-TAF: